Time;durP1;ratioP1;P1;durP2;ratioP2;P2;SDS_P1;SDS_P2;PMS_P1;PMS_P2;Temp;Humidity;BMP_temperature;BMP_pressure;BME280_temperature;BME280_humidity;BME280_pressure;Samples;Min_cycle;Max_cycle;Signal;HPM_P1;HPM_P2
2021/12/02 00:01:33;;;;;;;2.95;1.50;;;6.60;99.90;;;;;;5034582;28;20042;-74
2021/12/02 00:03:59;;;;;;;2.95;1.20;;;6.60;99.90;;;;;;5033549;28;20100;-74
2021/12/02 00:06:26;;;;;;;4.70;1.75;;;6.50;99.90;;;;;;5034470;28;20119;-74
2021/12/02 00:08:52;;;;;;;8.80;3.65;;;6.40;99.90;;;;;;5034010;28;20041;-74
2021/12/02 00:11:20;;;;;;;6.60;2.20;;;6.50;99.90;;;;;;5033786;28;20044;-74
2021/12/02 00:16:26;;;;;;;5.13;2.17;;;6.60;99.90;;;;;;5033666;28;20037;-74
2021/12/02 00:21:23;;;;;;;7.68;4.00;;;6.80;99.90;;;;;;5036656;28;20041;-74
2021/12/02 00:24:03;;;;;;;3.03;1.50;;;6.60;99.90;;;;;;5036908;28;20045;-74
2021/12/02 00:26:31;;;;;;;3.13;1.20;;;6.60;99.90;;;;;;5037128;28;20033;-74
2021/12/02 00:28:59;;;;;;;1.33;0.80;;;6.60;99.90;;;;;;5037774;28;20037;-74
2021/12/02 00:31:29;;;;;;;4.72;1.90;;;6.50;99.90;;;;;;5037456;28;20041;-74
2021/12/02 00:33:57;;;;;;;2.53;1.60;;;6.50;99.90;;;;;;5037006;28;20068;-74
2021/12/02 00:36:26;;;;;;;1.42;0.98;;;6.30;99.90;;;;;;5037103;28;20040;-74
2021/12/02 00:38:53;;;;;;;2.15;1.13;;;6.40;99.90;;;;;;5037363;28;20488;-74
2021/12/02 00:41:22;;;;;;;2.17;0.65;;;6.30;99.90;;;;;;5037099;28;20190;-74
2021/12/02 00:43:50;;;;;;;1.33;0.60;;;6.30;99.90;;;;;;5037510;28;20179;-74
2021/12/02 00:46:18;;;;;;;4.80;1.10;;;6.30;99.90;;;;;;5037288;28;20072;-74
2021/12/02 00:48:45;;;;;;;2.25;0.70;;;6.30;99.90;;;;;;5037190;28;20064;-74
2021/12/02 00:51:12;;;;;;;3.65;2.08;;;6.40;99.90;;;;;;5037154;28;20038;-74
2021/12/02 00:53:46;;;;;;;3.20;1.60;;;6.50;99.90;;;;;;5036994;28;20041;-74
2021/12/02 00:56:16;;;;;;;4.50;1.40;;;6.50;99.90;;;;;;5037237;28;20064;-74
2021/12/02 00:58:47;;;;;;;12.52;7.35;;;6.50;99.90;;;;;;5037290;28;20056;-74
2021/12/02 01:01:15;;;;;;;2.92;1.20;;;6.30;99.90;;;;;;5037397;28;20491;-74
2021/12/02 01:03:42;;;;;;;2.15;1.25;;;6.20;99.90;;;;;;5036509;28;20121;-74
2021/12/02 01:06:08;;;;;;;3.22;1.20;;;6.20;99.90;;;;;;5036934;28;20048;-74
2021/12/02 01:08:35;;;;;;;2.88;0.80;;;6.20;99.90;;;;;;5037316;28;20029;-73
2021/12/02 01:11:03;;;;;;;4.10;1.67;;;6.20;99.90;;;;;;5036838;28;20033;-73
2021/12/02 01:13:29;;;;;;;3.67;1.50;;;6.30;99.90;;;;;;5036643;28;20072;-74
2021/12/02 01:15:55;;;;;;;3.00;1.65;;;6.50;99.90;;;;;;5036747;28;20080;-73
2021/12/02 01:18:22;;;;;;;4.45;1.67;;;6.50;99.90;;;;;;5036456;28;20083;-73
2021/12/02 01:20:50;;;;;;;3.75;1.20;;;6.50;99.90;;;;;;5036338;28;20033;-73
2021/12/02 01:23:17;;;;;;;1.98;1.10;;;6.50;99.90;;;;;;5036582;28;20041;-74
2021/12/02 01:25:48;;;;;;;2.22;1.30;;;6.50;99.90;;;;;;5036610;28;20138;-74
2021/12/02 01:28:16;;;;;;;4.85;2.22;;;6.40;99.90;;;;;;5036177;28;20091;-74
2021/12/02 01:30:42;;;;;;;5.30;1.80;;;6.50;99.90;;;;;;5036446;28;20049;-74
2021/12/02 01:33:08;;;;;;;1.88;1.23;;;6.50;99.90;;;;;;5035017;28;20071;-73
2021/12/02 01:35:35;;;;;;;2.35;0.85;;;6.50;99.90;;;;;;5036107;28;20037;-74
2021/12/02 01:38:01;;;;;;;2.97;1.00;;;6.60;99.90;;;;;;5036284;28;20108;-73
2021/12/02 01:40:28;;;;;;;2.25;1.20;;;6.60;99.90;;;;;;5036147;28;20578;-73
2021/12/02 01:42:58;;;;;;;7.13;1.65;;;6.50;99.90;;;;;;5035884;28;20527;-73
2021/12/02 01:45:26;;;;;;;6.53;2.22;;;6.40;99.90;;;;;;5036141;28;20114;-74
2021/12/02 01:47:54;;;;;;;3.00;0.85;;;6.20;99.90;;;;;;5035696;28;20041;-73
2021/12/02 01:50:23;;;;;;;2.30;0.52;;;6.00;99.90;;;;;;5036670;28;20048;-74
2021/12/02 01:52:58;;;;;;;4.43;0.90;;;6.00;99.90;;;;;;5036093;28;20049;-74
2021/12/02 01:55:25;;;;;;;3.58;1.42;;;6.00;99.90;;;;;;5036038;28;20049;-73
2021/12/02 01:58:04;;;;;;;2.45;0.93;;;5.90;99.90;;;;;;5036214;28;20038;-73
2021/12/02 02:00:41;;;;;;;2.00;0.70;;;5.80;99.90;;;;;;5035461;28;20045;-74
2021/12/02 02:03:08;;;;;;;4.35;1.73;;;5.90;99.90;;;;;;5051418;28;20447;-74
2021/12/02 02:05:34;;;;;;;3.40;0.90;;;6.00;99.90;;;;;;5035529;28;20052;-73
2021/12/02 02:08:05;;;;;;;2.10;1.02;;;6.00;99.90;;;;;;5035938;28;20120;-74
2021/12/02 02:10:37;;;;;;;2.85;0.90;;;5.90;99.90;;;;;;5035779;28;20045;-74
2021/12/02 02:13:06;;;;;;;3.85;1.25;;;6.00;99.90;;;;;;5035836;28;20051;-73
2021/12/02 02:15:33;;;;;;;4.13;1.10;;;5.90;99.90;;;;;;5035623;28;20488;-73
2021/12/02 02:18:09;;;;;;;5.70;2.10;;;5.90;99.90;;;;;;5035406;28;20073;-74
2021/12/02 02:21:02;;;;;;;6.15;0.90;;;5.70;99.90;;;;;;5035758;28;20558;-73
2021/12/02 02:23:30;;;;;;;5.55;1.60;;;5.70;99.90;;;;;;5035152;28;20088;-73
2021/12/02 02:25:57;;;;;;;4.70;1.20;;;5.60;99.90;;;;;;5034770;28;20055;-74
2021/12/02 02:28:23;;;;;;;4.43;1.45;;;5.60;99.90;;;;;;5035597;28;20104;-73
2021/12/02 02:30:49;;;;;;;7.35;1.80;;;5.60;99.90;;;;;;5035127;28;20134;-74
2021/12/02 02:33:18;;;;;;;8.70;1.75;;;5.60;99.90;;;;;;5034427;28;20082;-74
2021/12/02 02:35:45;;;;;;;6.40;1.40;;;5.70;99.90;;;;;;5035394;28;20041;-74
2021/12/02 02:38:12;;;;;;;6.50;1.60;;;5.70;99.90;;;;;;5035482;28;20037;-74
2021/12/02 02:40:41;;;;;;;6.30;1.30;;;5.60;99.90;;;;;;5034901;28;20134;-74
2021/12/02 02:43:09;;;;;;;5.40;1.38;;;5.60;99.90;;;;;;5034608;28;20034;-74
2021/12/02 02:45:37;;;;;;;5.38;1.25;;;5.60;99.90;;;;;;5034736;28;20179;-74
2021/12/02 02:48:03;;;;;;;5.30;2.50;;;5.50;99.90;;;;;;5034958;28;20029;-74
2021/12/02 02:50:33;;;;;;;4.10;1.50;;;5.30;99.90;;;;;;5035005;28;20512;-74
2021/12/02 02:53:22;;;;;;;5.53;1.65;;;5.30;99.90;;;;;;5034628;28;20138;-74
2021/12/02 02:56:04;;;;;;;4.18;1.10;;;5.40;99.90;;;;;;5034350;28;20480;-74
2021/12/02 03:04:02;;;;;;;5.28;1.05;;;5.60;99.90;;;;;;5033891;28;20040;-74
2021/12/02 03:09:46;;;;;;;3.75;0.80;;;5.70;99.90;;;;;;5034127;28;20080;-74
2021/12/02 03:12:08;;;;;;;2.20;0.93;;;5.70;99.90;;;;;;5034483;28;20065;-74
2021/12/02 03:17:08;;;;;;;3.00;0.77;;;5.60;99.90;;;;;;5034045;28;20034;-74
2021/12/02 03:19:37;;;;;;;2.50;1.15;;;5.50;99.90;;;;;;5034671;28;20037;-74
2021/12/02 03:22:03;;;;;;;24.33;17.13;;;5.60;99.90;;;;;;5034370;28;20045;-74
2021/12/02 03:24:29;;;;;;;12.13;7.13;;;5.50;99.90;;;;;;5033937;28;20045;-74
2021/12/02 03:26:55;;;;;;;3.30;1.52;;;5.50;99.90;;;;;;5034279;28;20124;-73
2021/12/02 03:29:20;;;;;;;4.40;1.42;;;5.50;99.90;;;;;;5034511;28;20135;-73
2021/12/02 03:31:46;;;;;;;1.60;1.00;;;5.60;99.90;;;;;;5034068;28;20199;-74
2021/12/02 03:34:12;;;;;;;2.25;1.25;;;5.60;99.90;;;;;;5034529;28;20041;-74
2021/12/02 03:36:38;;;;;;;5.93;1.02;;;5.60;99.90;;;;;;5034242;28;20060;-74
2021/12/02 03:39:08;;;;;;;3.13;1.00;;;5.60;99.90;;;;;;5034321;28;20083;-74
2021/12/02 03:41:34;;;;;;;2.88;0.80;;;5.60;99.90;;;;;;5034498;28;20128;-74
2021/12/02 03:44:00;;;;;;;2.65;1.30;;;5.50;99.90;;;;;;5034153;28;20068;-73
2021/12/02 03:46:26;;;;;;;3.42;1.10;;;5.40;99.90;;;;;;5034145;28;20041;-73
2021/12/02 03:48:53;;;;;;;2.20;0.82;;;5.30;99.90;;;;;;5033781;28;20531;-74
2021/12/02 03:51:19;;;;;;;7.20;1.25;;;5.10;99.90;;;;;;5034099;28;20041;-74
2021/12/02 03:53:46;;;;;;;2.97;1.75;;;4.90;99.90;;;;;;5034275;28;20041;-74
2021/12/02 03:56:13;;;;;;;1.80;0.50;;;4.80;99.90;;;;;;5036600;28;20037;-73
2021/12/02 03:58:41;;;;;;;1.13;0.50;;;4.70;99.90;;;;;;5038033;28;20048;-74
2021/12/02 04:01:08;;;;;;;1.70;0.60;;;4.60;99.90;;;;;;5037869;28;20120;-74
2021/12/02 04:03:34;;;;;;;1.77;0.43;;;4.80;99.90;;;;;;5037833;28;20049;-73
2021/12/02 04:06:01;;;;;;;3.08;0.57;;;4.90;99.90;;;;;;5037673;28;20041;-74
2021/12/02 04:08:32;;;;;;;0.98;0.40;;;4.90;99.90;;;;;;5038183;28;20073;-73
2021/12/02 04:16:32;;;;;;;4.00;0.55;;;4.80;99.90;;;;;;5037855;28;20124;-73
2021/12/02 04:18:57;;;;;;;0.80;0.40;;;4.90;99.90;;;;;;5037284;28;20044;-73
2021/12/02 04:21:23;;;;;;;2.92;0.55;;;4.90;99.90;;;;;;5037456;28;20124;-74
2021/12/02 04:23:49;;;;;;;2.15;0.40;;;4.90;99.90;;;;;;5037278;28;20030;-74
2021/12/02 04:26:15;;;;;;;0.68;0.40;;;4.90;99.90;;;;;;5038286;28;20033;-73
2021/12/02 04:28:41;;;;;;;4.68;0.50;;;4.90;99.90;;;;;;5037867;28;20099;-74
2021/12/02 04:31:07;;;;;;;3.40;0.80;;;4.90;99.90;;;;;;5037742;28;20396;-73
2021/12/02 04:33:33;;;;;;;1.58;0.70;;;4.90;99.90;;;;;;5037388;28;20061;-73
2021/12/02 04:36:00;;;;;;;1.13;0.40;;;4.90;99.90;;;;;;5037523;28;20029;-74
2021/12/02 04:38:27;;;;;;;1.30;0.40;;;4.90;99.90;;;;;;5037714;28;20052;-74
2021/12/02 04:40:54;;;;;;;2.42;0.80;;;5.00;99.90;;;;;;5037155;28;20045;-74
2021/12/02 04:43:20;;;;;;;2.15;0.95;;;5.00;99.90;;;;;;5037352;28;20071;-74
2021/12/02 04:45:45;;;;;;;3.75;0.80;;;5.00;99.90;;;;;;5037296;28;20120;-73
2021/12/02 04:48:11;;;;;;;2.33;0.70;;;5.10;99.90;;;;;;5037137;28;20076;-74
2021/12/02 04:50:37;;;;;;;2.70;0.90;;;5.00;99.90;;;;;;5037225;28;20048;-73
2021/12/02 04:53:03;;;;;;;2.88;0.90;;;5.00;99.90;;;;;;5036810;28;20085;-74
2021/12/02 04:55:29;;;;;;;6.07;1.02;;;5.00;99.90;;;;;;5036798;28;20033;-74
2021/12/02 04:57:55;;;;;;;5.93;0.88;;;5.00;99.90;;;;;;5036791;28;20519;-74
2021/12/02 05:00:21;;;;;;;3.47;0.90;;;4.90;99.90;;;;;;5037127;28;20037;-74
2021/12/02 05:02:48;;;;;;;4.47;1.00;;;5.00;99.90;;;;;;5035997;28;20071;-74
2021/12/02 05:05:14;;;;;;;2.20;0.57;;;5.00;99.90;;;;;;5036124;28;20037;-74
2021/12/02 05:07:40;;;;;;;2.35;0.60;;;5.00;99.90;;;;;;5036653;28;20073;-74
2021/12/02 05:10:07;;;;;;;0.50;0.50;;;5.10;99.90;;;;;;5036303;28;20044;-74
2021/12/02 05:12:33;;;;;;;1.13;0.43;;;5.20;99.90;;;;;;5035968;28;20204;-74
2021/12/02 05:15:00;;;;;;;0.88;0.40;;;5.20;99.90;;;;;;5036263;28;20034;-74
2021/12/02 05:17:26;;;;;;;1.35;0.35;;;5.30;99.90;;;;;;5036288;28;20068;-74
2021/12/02 05:19:52;;;;;;;1.00;0.35;;;5.30;99.90;;;;;;5036344;28;20034;-74
2021/12/02 05:22:18;;;;;;;0.40;0.30;;;5.40;99.90;;;;;;5036664;28;20184;-74
2021/12/02 05:24:44;;;;;;;2.08;0.60;;;5.40;99.90;;;;;;5035402;28;20067;-75
2021/12/02 05:27:12;;;;;;;1.27;0.50;;;5.30;99.90;;;;;;5035130;28;20041;-73
2021/12/02 05:29:38;;;;;;;0.68;0.30;;;5.20;99.90;;;;;;5035258;28;20044;-74
2021/12/02 05:32:04;;;;;;;0.80;0.50;;;5.10;99.90;;;;;;5034699;28;20140;-74
2021/12/02 05:34:31;;;;;;;0.30;0.20;;;5.00;99.90;;;;;;5026916;28;20179;-74
2021/12/02 05:36:56;;;;;;;2.88;0.30;;;5.00;99.90;;;;;;5019145;28;20033;-73
2021/12/02 05:39:22;;;;;;;0.15;0.15;;;4.90;99.90;;;;;;5035076;28;20041;-73
2021/12/02 05:41:53;;;;;;;1.52;0.30;;;4.90;99.90;;;;;;5035054;28;20049;-74
2021/12/02 05:44:19;;;;;;;0.38;0.20;;;5.00;99.90;;;;;;5034725;28;20049;-74
2021/12/02 05:46:45;;;;;;;0.30;0.25;;;5.10;99.90;;;;;;5035048;28;20033;-73
2021/12/02 05:49:10;;;;;;;0.20;0.13;;;5.10;99.90;;;;;;5035136;28;20048;-73
2021/12/02 05:51:36;;;;;;;0.10;0.10;;;5.10;99.90;;;;;;5034197;28;20039;-73
2021/12/02 05:54:02;;;;;;;0.13;0.13;;;5.20;99.90;;;;;;5033650;28;20037;-73
2021/12/02 05:56:28;;;;;;;0.20;0.20;;;5.10;99.90;;;;;;5033626;28;20124;-73
2021/12/02 05:58:54;;;;;;;0.35;0.30;;;5.20;99.90;;;;;;5034080;28;20045;-73
2021/12/02 06:01:19;;;;;;;0.20;0.20;;;5.20;99.90;;;;;;5034122;28;20083;-73
2021/12/02 06:03:46;;;;;;;0.50;0.20;;;5.20;99.90;;;;;;5033847;28;20042;-73
2021/12/02 06:06:14;;;;;;;3.42;0.20;;;5.10;99.90;;;;;;5033938;28;20045;-73
2021/12/02 06:08:40;;;;;;;0.10;0.10;;;5.10;99.90;;;;;;5034046;28;20048;-73
2021/12/02 06:11:06;;;;;;;0.80;0.70;;;5.10;99.90;;;;;;5033922;28;20481;-73
2021/12/02 06:13:32;;;;;;;0.93;0.88;;;5.10;99.90;;;;;;5033435;28;20049;-73
2021/12/02 06:15:57;;;;;;;0.57;0.57;;;5.00;99.90;;;;;;5033816;28;20045;-73
2021/12/02 06:18:23;;;;;;;0.10;0.10;;;5.00;99.90;;;;;;5033148;28;20045;-73
2021/12/02 06:20:53;;;;;;;0.40;0.38;;;5.00;99.90;;;;;;5033156;28;20073;-73
2021/12/02 06:23:20;;;;;;;0.20;0.20;;;4.90;99.90;;;;;;5031558;28;20071;-73
2021/12/02 06:25:47;;;;;;;0.47;0.28;;;4.80;99.90;;;;;;4988989;28;1291616;-73
2021/12/02 06:28:13;;;;;;;1.98;0.30;;;4.80;99.90;;;;;;5034145;28;20068;-73
2021/12/02 06:30:39;;;;;;;0.70;0.30;;;4.80;99.90;;;;;;5034171;28;20068;-73
2021/12/02 06:33:05;;;;;;;0.10;0.10;;;4.70;99.90;;;;;;5034143;28;20073;-73
2021/12/02 06:35:30;;;;;;;0.20;0.20;;;4.60;99.90;;;;;;5034344;28;20041;-73
2021/12/02 06:37:57;;;;;;;4.68;0.40;;;4.50;99.90;;;;;;5034109;28;20041;-73
2021/12/02 06:40:23;;;;;;;0.17;0.13;;;4.60;99.90;;;;;;5034291;28;20045;-73
2021/12/02 06:42:48;;;;;;;0.38;0.25;;;4.50;99.90;;;;;;5034245;28;20095;-73
2021/12/02 06:45:14;;;;;;;0.30;0.17;;;4.50;99.90;;;;;;5034557;28;20136;-74
2021/12/02 06:47:41;;;;;;;1.08;0.30;;;4.40;99.90;;;;;;5034687;28;20515;-74
2021/12/02 06:50:15;;;;;;;0.22;0.20;;;4.50;99.90;;;;;;5034893;28;20037;-74
2021/12/02 06:52:41;;;;;;;1.75;0.30;;;4.60;99.90;;;;;;5035241;28;20052;-74
2021/12/02 06:55:08;;;;;;;0.38;0.28;;;4.70;99.90;;;;;;5034719;28;20038;-74
2021/12/02 06:57:35;;;;;;;1.20;0.20;;;4.80;99.90;;;;;;5034696;28;20037;-74
2021/12/02 07:00:07;;;;;;;1.05;0.30;;;4.80;99.90;;;;;;5034789;28;20037;-74
2021/12/02 07:02:33;;;;;;;0.40;0.30;;;4.90;99.90;;;;;;5034165;28;20041;-74
2021/12/02 07:04:58;;;;;;;0.68;0.20;;;5.00;99.90;;;;;;5034620;28;20132;-74
2021/12/02 07:07:30;;;;;;;0.10;0.10;;;5.00;99.90;;;;;;5034559;28;20119;-74
2021/12/02 07:09:55;;;;;;;0.20;0.20;;;5.10;99.90;;;;;;5034231;28;20037;-74
2021/12/02 07:12:29;;;;;;;0.28;0.20;;;5.00;99.90;;;;;;5034442;28;20080;-73
2021/12/02 07:14:54;;;;;;;0.75;0.10;;;5.00;99.90;;;;;;5034577;28;20049;-74
2021/12/02 07:17:20;;;;;;;0.10;0.10;;;5.00;99.90;;;;;;5034045;28;20527;-72
2021/12/02 07:19:46;;;;;;;2.08;0.20;;;5.00;99.90;;;;;;5033837;28;20045;-73
2021/12/02 07:22:12;;;;;;;0.20;0.20;;;4.90;99.90;;;;;;5033767;28;20045;-73
2021/12/02 07:24:38;;;;;;;0.30;0.30;;;4.80;99.90;;;;;;5032837;28;20057;-73
2021/12/02 07:27:05;;;;;;;0.63;0.60;;;4.80;99.90;;;;;;5033669;28;20044;-73
2021/12/02 07:29:31;;;;;;;0.75;0.40;;;4.90;99.90;;;;;;5033881;28;20321;-74
2021/12/02 07:32:03;;;;;;;0.30;0.30;;;4.90;99.90;;;;;;5037835;28;20058;-73
2021/12/02 07:34:33;;;;;;;0.20;0.20;;;4.90;99.90;;;;;;5038371;28;20041;-73
2021/12/02 07:37:00;;;;;;;0.20;0.10;;;5.00;99.90;;;;;;5038240;28;20357;-73
2021/12/02 07:39:28;;;;;;;0.30;0.10;;;5.00;99.90;;;;;;5037024;28;20044;-73
2021/12/02 07:41:55;;;;;;;0.45;0.20;;;5.10;99.90;;;;;;5036218;28;20045;-73
2021/12/02 07:44:21;;;;;;;107.78;30.48;;;5.10;99.90;;;;;;5038126;28;20059;-72
2021/12/02 07:46:47;;;;;;;30.60;10.70;;;5.20;99.90;;;;;;5037888;28;20069;-72
2021/12/02 07:49:14;;;;;;;2.03;1.50;;;5.20;99.90;;;;;;5038071;28;20037;-72
2021/12/02 07:51:43;;;;;;;0.73;0.50;;;5.30;99.90;;;;;;5037872;28;20064;-72
2021/12/02 07:54:10;;;;;;;0.68;0.60;;;5.30;99.90;;;;;;5037911;28;20029;-72
2021/12/02 07:56:36;;;;;;;0.85;0.80;;;5.30;99.90;;;;;;5036486;28;20149;-73
2021/12/02 07:59:03;;;;;;;3.05;2.47;;;5.30;99.90;;;;;;5035773;28;20037;-72
2021/12/02 08:01:29;;;;;;;0.50;0.50;;;5.30;99.90;;;;;;5035278;28;20041;-72
2021/12/02 08:03:55;;;;;;;40.80;30.73;;;5.40;99.90;;;;;;5035444;28;20103;-73
2021/12/02 08:06:23;;;;;;;18.50;15.82;;;5.50;99.90;;;;;;5036351;28;20065;-72
2021/12/02 08:08:49;;;;;;;4.40;3.15;;;5.50;99.90;;;;;;5036333;28;20030;-72
2021/12/02 08:11:15;;;;;;;2.88;2.45;;;5.50;99.90;;;;;;5035718;28;20389;-71
2021/12/02 08:13:41;;;;;;;13.35;10.32;;;5.60;99.90;;;;;;5036053;28;20137;-73
2021/12/02 08:16:07;;;;;;;0.40;0.40;;;5.70;99.90;;;;;;5035348;28;20144;-73
2021/12/02 08:18:35;;;;;;;1.65;1.20;;;5.70;99.90;;;;;;5035263;28;20041;-73
2021/12/02 08:21:01;;;;;;;11.20;9.85;;;5.80;99.90;;;;;;5036263;28;20048;-73
2021/12/02 08:23:27;;;;;;;4.60;3.42;;;5.80;99.90;;;;;;5036973;28;20041;-72
2021/12/02 08:25:56;;;;;;;6.97;4.68;;;5.80;99.90;;;;;;5036654;28;20056;-72
2021/12/02 08:28:22;;;;;;;9.18;8.15;;;5.80;99.90;;;;;;5036551;28;20500;-72
2021/12/02 08:30:49;;;;;;;5.25;3.03;;;5.80;99.90;;;;;;5036027;28;20057;-72
2021/12/02 08:33:18;;;;;;;5.22;4.53;;;6.00;99.90;;;;;;5035355;28;20132;-73
2021/12/02 08:35:44;;;;;;;2.65;1.23;;;6.10;99.90;;;;;;5035803;28;20041;-72
2021/12/02 08:38:12;;;;;;;3.60;3.28;;;6.20;99.90;;;;;;5035826;28;20029;-72
2021/12/02 08:40:39;;;;;;;32.00;20.42;;;6.30;99.90;;;;;;5036046;28;20095;-73
2021/12/02 08:43:08;;;;;;;6.00;3.72;;;6.20;99.90;;;;;;5036455;28;20102;-72
2021/12/02 08:45:35;;;;;;;5.43;4.93;;;6.10;99.90;;;;;;5037133;28;20038;-72
2021/12/02 08:48:03;;;;;;;1.67;1.15;;;6.10;99.90;;;;;;5036494;28;20065;-73
2021/12/02 08:50:30;;;;;;;4.53;1.23;;;6.00;99.90;;;;;;5037277;28;20058;-72
2021/12/02 08:52:56;;;;;;;2.55;2.08;;;5.90;99.90;;;;;;5036653;28;20045;-72
2021/12/02 08:55:23;;;;;;;9.05;8.20;;;5.80;99.90;;;;;;5036756;28;20037;-72
2021/12/02 08:57:51;;;;;;;1.65;1.55;;;5.70;99.90;;;;;;5035942;28;20059;-72
2021/12/02 09:00:25;;;;;;;1.77;1.27;;;5.60;99.90;;;;;;5036010;28;20091;-72
2021/12/02 09:02:54;;;;;;;1.75;1.65;;;5.60;99.90;;;;;;5036550;28;20072;-72
2021/12/02 09:05:19;;;;;;;0.38;0.30;;;5.70;99.90;;;;;;5035872;28;20041;-72
2021/12/02 09:07:46;;;;;;;1.92;1.13;;;5.70;99.90;;;;;;5034363;28;20038;-71
2021/12/02 09:10:12;;;;;;;1.75;1.00;;;5.70;99.90;;;;;;5034360;28;20045;-72
2021/12/02 09:12:38;;;;;;;1.48;0.90;;;5.90;99.90;;;;;;5034355;28;20547;-71
2021/12/02 09:15:08;;;;;;;2.33;0.40;;;6.00;99.90;;;;;;5034155;28;20068;-72
2021/12/02 09:17:35;;;;;;;0.90;0.60;;;6.10;99.90;;;;;;5034943;28;20088;-72
2021/12/02 09:20:01;;;;;;;0.73;0.57;;;6.10;99.90;;;;;;5035360;28;20120;-71
2021/12/02 09:22:27;;;;;;;0.60;0.60;;;6.00;99.90;;;;;;5036263;28;20041;-72
2021/12/02 09:24:52;;;;;;;0.80;0.50;;;6.30;99.90;;;;;;5036445;28;20063;-72
2021/12/02 09:27:18;;;;;;;1.30;1.10;;;6.50;99.90;;;;;;5036605;28;20041;-72
2021/12/02 09:29:44;;;;;;;1.38;0.90;;;6.50;99.90;;;;;;5036611;28;20041;-72
2021/12/02 09:32:11;;;;;;;5.45;4.95;;;6.80;99.90;;;;;;5036554;28;20400;-72
2021/12/02 09:34:37;;;;;;;14.10;12.80;;;6.80;99.90;;;;;;5036045;28;20045;-72
2021/12/02 09:37:03;;;;;;;0.95;0.40;;;6.80;90.40;;;;;;5036413;28;20037;-72
2021/12/02 09:39:31;;;;;;;0.50;0.50;;;6.80;78.10;;;;;;5036460;28;20063;-72
2021/12/02 09:41:57;;;;;;;1.10;0.50;;;6.90;99.90;;;;;;5036216;28;20038;-72
2021/12/02 09:44:24;;;;;;;3.90;3.60;;;6.80;99.90;;;;;;5036244;28;20049;-72
2021/12/02 09:46:50;;;;;;;15.48;14.05;;;7.10;90.50;;;;;;5036059;28;20029;-72
2021/12/02 09:49:17;;;;;;;1.10;0.40;;;7.10;66.30;;;;;;5035763;28;20068;-72
2021/12/02 09:54:25;;;;;;;0.68;0.63;;;6.50;99.90;;;;;;5035568;28;20083;-72
2021/12/02 09:56:52;;;;;;;1.50;0.80;;;6.30;99.90;;;;;;5035096;28;20380;-70
2021/12/02 10:02:09;;;;;;;0.50;0.50;;;6.10;99.90;;;;;;5016809;28;20037;-71
2021/12/02 10:04:44;;;;;;;0.60;0.60;;;6.10;99.90;;;;;;5014706;28;20063;-71
2021/12/02 10:10:10;;;;;;;0.80;0.50;;;6.10;99.90;;;;;;5034269;28;20042;-71
2021/12/02 10:12:43;;;;;;;12.25;0.80;;;5.50;99.90;;;;;;5035065;28;20116;-72
2021/12/02 10:15:13;;;;;;;2.70;1.10;;;5.10;1.00;;;;;;5034334;28;20037;-71
2021/12/02 10:17:44;;;;;;;1.20;0.73;;;5.20;1.00;;;;;;5034863;28;20045;-70
2021/12/02 10:20:34;;;;;;;1.95;1.38;;;5.40;99.90;;;;;;5033751;28;20120;-70
2021/12/02 10:23:18;;;;;;;1.60;1.25;;;5.30;99.90;;;;;;5033646;28;20037;-70
2021/12/02 10:26:05;;;;;;;0.60;0.60;;;5.20;99.90;;;;;;5033661;28;20059;-70
2021/12/02 10:28:42;;;;;;;1.20;0.75;;;5.10;99.90;;;;;;5035271;28;20068;-70
2021/12/02 10:31:09;;;;;;;1.17;0.88;;;5.00;1.00;;;;;;5033873;28;20034;-70
2021/12/02 10:33:45;;;;;;;1.42;1.00;;;5.30;1.00;;;;;;5032854;28;20041;-71
2021/12/02 10:36:30;;;;;;;0.50;0.50;;;5.20;99.90;;;;;;5033113;28;20045;-70
2021/12/02 10:39:07;;;;;;;1.27;1.17;;;5.40;99.90;;;;;;5034196;28;20120;-70
2021/12/02 10:41:33;;;;;;;1.40;1.05;;;5.60;97.00;;;;;;5033492;28;20033;-72
2021/12/02 10:44:25;;;;;;;3.00;2.50;;;5.90;99.90;;;;;;5031876;28;20034;-72
2021/12/02 10:47:00;;;;;;;2.42;2.05;;;5.60;99.90;;;;;;5033624;28;20037;-72
2021/12/02 10:49:31;;;;;;;10.32;9.38;;;5.50;99.90;;;;;;5027561;28;20519;-69
2021/12/02 10:52:01;;;;;;;2.42;1.65;;;5.70;33.90;;;;;;5032211;28;20048;-71
2021/12/02 10:54:34;;;;;;;0.77;0.77;;;6.00;58.90;;;;;;5031956;28;20041;-71
2021/12/02 10:57:10;;;;;;;2.22;2.05;;;5.90;99.90;;;;;;5033614;28;20029;-71
2021/12/02 10:59:46;;;;;;;1.15;0.77;;;5.80;99.90;;;;;;5033945;28;20040;-71
2021/12/02 11:02:17;;;;;;;1.42;0.70;;;5.80;99.90;;;;;;5032542;28;20504;-71
2021/12/02 11:04:45;;;;;;;;;;;5.70;99.90;;;;;;5034002;28;20131;-71
2021/12/02 11:07:39;;;;;;;0.60;0.50;;;5.80;1.00;;;;;;5033017;28;20391;-71
2021/12/02 11:10:10;;;;;;;2.00;0.60;;;5.70;99.90;;;;;;5033703;28;20098;-72
2021/12/02 11:12:38;;;;;;;4.07;3.15;;;5.70;99.90;;;;;;5033057;28;20045;-71
2021/12/02 11:15:11;;;;;;;1.80;1.40;;;5.90;99.90;;;;;;5033551;28;20073;-71
2021/12/02 11:17:43;;;;;;;5.93;2.38;;;6.00;99.90;;;;;;5032762;28;20083;-72
2021/12/02 11:20:21;;;;;;;50.17;44.40;;;6.20;99.90;;;;;;5033205;28;20493;-74
2021/12/02 11:22:51;;;;;;;5.95;1.90;;;6.20;99.90;;;;;;5033009;28;20207;-72
2021/12/02 11:25:17;;;;;;;5.28;2.25;;;6.30;99.90;;;;;;5032693;28;20420;-72
2021/12/02 11:27:49;;;;;;;8.05;2.05;;;6.40;99.90;;;;;;5033350;28;20033;-71
2021/12/02 11:30:25;;;;;;;7.80;2.15;;;6.70;99.90;;;;;;5033405;28;20041;-72
2021/12/02 11:32:56;;;;;;;16.63;9.05;;;6.60;99.90;;;;;;5032441;28;20041;-71
2021/12/02 11:35:38;;;;;;;5.65;2.67;;;6.60;99.90;;;;;;5033386;28;20064;-71
2021/12/02 11:38:16;;;;;;;61.30;35.13;;;6.80;99.90;;;;;;5033095;28;20029;-70
2021/12/02 11:40:46;;;;;;;11.77;5.43;;;6.70;99.90;;;;;;5033456;28;20037;-72
2021/12/02 11:43:15;;;;;;;10.02;3.95;;;6.50;99.90;;;;;;5032666;28;20065;-73
2021/12/02 11:45:46;;;;;;;21.05;9.45;;;6.50;99.90;;;;;;5032795;28;20589;-71
2021/12/02 11:48:17;;;;;;;15.55;6.60;;;6.50;99.90;;;;;;5032411;28;20033;-71
2021/12/02 11:50:43;;;;;;;;;;;6.60;84.20;;;;;;5033285;28;20042;-71
2021/12/02 11:53:10;;;;;;;54.15;27.92;;;6.60;52.60;;;;;;5032657;28;20360;-71
2021/12/02 11:55:42;;;;;;;13.40;5.90;;;6.70;38.50;;;;;;5031768;28;20037;-71
2021/12/02 11:58:09;;;;;;;193.68;88.97;;;6.70;19.70;;;;;;5031695;28;20045;-73
2021/12/02 12:00:36;;;;;;;16.30;5.97;;;6.70;70.10;;;;;;5031570;28;20041;-73
2021/12/02 12:03:22;;;;;;;88.28;37.13;;;6.90;37.50;;;;;;5032869;28;20065;-74
2021/12/02 12:06:22;;;;;;;30.20;12.70;;;6.70;43.00;;;;;;5032642;28;20048;-74
2021/12/02 12:08:50;;;;;;;212.18;102.22;;;6.80;85.20;;;;;;5033061;28;20488;-73
2021/12/02 12:11:21;;;;;;;10.43;4.95;;;6.80;50.60;;;;;;5032997;28;20037;-73
2021/12/02 12:13:50;;;;;;;;;;;6.70;46.00;;;;;;5031121;28;20493;-73
2021/12/02 12:16:28;;;;;;;32.10;16.23;;;6.70;7.50;;;;;;5033289;28;19909;-74
2021/12/02 12:18:56;;;;;;;7.18;3.42;;;6.80;17.30;;;;;;5034570;28;20077;-73
2021/12/02 12:21:39;;;;;;;13.10;7.00;;;6.90;32.90;;;;;;5035455;28;20041;-73
2021/12/02 12:24:06;;;;;;;5.93;2.03;;;7.00;13.30;;;;;;5035859;28;20152;-73
2021/12/02 12:26:33;;;;;;;10.77;2.75;;;7.20;1.00;;;;;;5036218;28;20120;-74
2021/12/02 12:29:13;;;;;;;8.07;2.90;;;7.30;5.30;;;;;;5036048;28;20134;-73
2021/12/02 12:31:51;;;;;;;8.35;2.22;;;7.00;14.80;;;;;;5036480;28;20178;-73
2021/12/02 12:35:13;;;;;;;7.88;2.83;;;6.90;56.80;;;;;;5035430;28;20450;-73
2021/12/02 12:40:04;;;;;;;11.52;6.70;;;7.00;26.60;;;;;;5035725;28;20037;-73
2021/12/02 12:42:30;;;;;;;11.60;3.65;;;7.20;1.00;;;;;;5036189;28;20484;-73
2021/12/02 12:44:58;;;;;;;15.88;9.27;;;7.00;24.80;;;;;;5035475;28;20042;-72
2021/12/02 12:47:47;;;;;;;12.90;3.88;;;7.00;18.10;;;;;;5035590;28;20156;-72
2021/12/02 12:50:31;;;;;;;8.27;3.50;;;6.90;29.00;;;;;;5035584;28;20037;-71
2021/12/02 12:53:06;;;;;;;7.05;3.20;;;6.80;41.00;;;;;;5035895;28;20071;-72
2021/12/02 12:55:36;;;;;;;11.43;4.25;;;6.80;41.20;;;;;;5035518;28;20075;-72
2021/12/02 12:58:14;;;;;;;9.20;3.63;;;7.00;36.30;;;;;;5035882;28;20145;-72
2021/12/02 13:00:43;;;;;;;4.68;2.20;;;6.90;35.70;;;;;;5035812;28;20068;-74
2021/12/02 13:03:15;;;;;;;11.57;2.40;;;6.90;46.00;;;;;;5035236;28;20087;-73
2021/12/02 13:05:51;;;;;;;7.75;2.08;;;6.90;20.80;;;;;;5035064;28;20049;-72
2021/12/02 13:08:25;;;;;;;6.13;2.92;;;7.10;38.40;;;;;;5035151;28;20120;-71
2021/12/02 13:11:00;;;;;;;7.60;2.60;;;7.00;13.10;;;;;;5035551;28;20064;-71
2021/12/02 13:13:33;;;;;;;7.82;2.35;;;7.20;1.00;;;;;;5034950;28;20056;-71
2021/12/02 13:16:18;;;;;;;8.88;3.60;;;7.40;4.70;;;;;;5034790;28;20044;-71
2021/12/02 13:18:47;;;;;;;8.85;2.13;;;7.30;1.00;;;;;;5035440;28;20064;-71
2021/12/02 13:21:28;;;;;;;5.50;2.17;;;7.30;25.30;;;;;;5050645;28;20033;-72
2021/12/02 13:24:06;;;;;;;11.07;3.67;;;7.20;11.90;;;;;;5034539;28;20098;-72
2021/12/02 13:26:37;;;;;;;9.95;3.88;;;6.90;91.20;;;;;;5034923;28;20493;-72
2021/12/02 13:29:06;;;;;;;7.22;2.20;;;6.80;99.90;;;;;;5033609;28;20045;-71
2021/12/02 13:31:32;;;;;;;6.50;2.28;;;6.70;99.90;;;;;;5034637;28;20033;-72
2021/12/02 13:34:03;;;;;;;5.05;1.83;;;6.60;93.90;;;;;;5035150;28;20049;-71
2021/12/02 13:36:40;;;;;;;3.20;1.88;;;6.50;72.70;;;;;;5032993;28;20037;-71
2021/12/02 13:39:14;;;;;;;7.45;2.00;;;6.60;98.10;;;;;;5033962;28;20044;-71